Date,TemperatureHighF,TemperatureAvgF,TemperatureLowF,DewpointHighF,DewpointAvgF,DewpointLowF,HumidityHigh,HumidityAvg,HumidityLow,PressureMaxIn,PressureMinIn,WindSpeedMaxMPH,WindSpeedAvgMPH,GustSpeedMaxMPH,PrecipitationSumIn
2013-7-1,73,62,51,58,50,42,85,66,38,30.15,30.03,13,2,18,0.06
2013-7-2,72,61,47,54,47,44,92,64,41,30.16,30.08,9,2,14,0.05
2013-7-3,76,66,56,60,54,49,83,66,50,30.11,30.01,7,1,10,0.00
2013-7-4,77,67,59,65,62,58,97,84,65,30.07,30.01,12,2,16,0.00
2013-7-5,79,67,60,67,62,58,95,83,63,30.06,29.98,10,2,16,0.00
2013-7-6,85,74,62,68,63,59,92,71,49,30.03,29.95,13,5,19,0.24
2013-7-7,70,4,63,64,-89,-100,90,5,79,29.97,29.91,10,2,17,0.16
2013-7-8,75,59,71,70,39,-100,94,78,85,29.95,29.91,6,3,12,0.00
2013-7-9,78,70,66,71,67,65,98,91,74,29.98,29.75,9,1,13,0.10
2013-7-10,71,66,64,70,59,-100,98,83,70,29.94,29.67,18,9,33,0.33
2013-7-11,73,63,53,59,56,52,97,80,56,30.09,29.94,12,2,18,0.00
2013-7-12,76,64,51,61,56,50,95,76,52,30.13,30.08,8,1,13,0.00
2013-7-13,83,71,60,64,60,55,91,69,49,30.19,30.11,12,3,16,0.00
2013-7-14,83,72,59,68,63,56,94,75,57,30.25,30.19,13,3,16,0.00
2013-7-15,84,72,63,69,65,61,96,79,57,30.29,30.23,7,1,12,0.00
2013-7-16,85,74,65,75,69,63,96,84,63,30.27,30.17,9,1,14,0.02
2013-7-17,91,79,75,74,72,69,90,80,51,30.21,30.11,13,3,20,0.02
2013-7-18,88,77,70,78,71,68,96,85,61,30.11,29.80,14,2,25,0.38
2013-7-19,82,78,72,73,70,61,89,76,67,29.78,29.63,17,7,32,0.01
2013-7-20,70,64,58,65,52,-100,96,68,49,29.99,29.74,17,7,23,0.01
2013-7-21,73,61,45,61,54,43,96,78,53,30.03,29.94,13,2,19,0.00
2013-7-22,84,67,60,70,62,57,91,83,53,29.94,29.64,14,1,18,0.00
2013-7-23,77,64,59,67,56,48,91,75,62,29.91,29.63,19,10,27,0.06
2013-7-24,68,59,44,55,50,42,96,73,56,30.05,29.93,10,3,19,0.00
2013-7-25,76,60,47,61,52,46,96,79,47,30.07,29.97,12,1,16,0.00
2013-7-26,79,63,57,68,59,55,97,88,63,30.01,29.83,17,3,27,1.37
2013-7-27,61,59,57,60,55,51,96,88,78,29.84,29.77,10,3,15,0.77
2013-7-28,67,59,56,56,53,51,95,81,60,29.88,29.72,13,4,20,0.03
2013-7-29,68,59,54,59,56,53,97,89,72,30.15,29.87,14,3,19,0.03
2013-7-30,70,61,52,60,56,51,97,83,65,30.20,30.10,9,1,12,0.01
2013-7-31,77,64,57,66,60,55,96,86,62,30.10,29.88,14,2,23,0.40